US-0090 weather

Davison Restricted Landing Area
Minork, Illinois, United States

Public forecast

Using degrees Fahrenheit for public forecast. Weather courtesy of forecast.io.

Closest aviation weather report (METAR) to Davison Restricted Landing Area

Closest report is Marshall County Airport, 13.3 nm (24.6 km) WNW. Retrieved 2020/06/07 05:15 UTC (7 minutes ago):

KC75 070515Z AUTO 08008G15KT 10SM CLR 18/08 A3008 RMK AO2 T01800083

Closest aviation forecast (TAF) to Davison Restricted Landing Area

Closest forecast is Central Illinois Regional Airport at Bloomington-Normal, 28.0 nm (51.9 km) SSE. Retrieved 2020-06-07 00:22 UTC (5 hours ago):

TAF KBMI 062320Z 0700/0724 07007KT P6SM SCT250 FM071700 12008KT P6SM FEW200